createdAt,value
2019-03-27T00:01:01.508Z,11.60
2019-03-27T00:03:31.362Z,17.03
2019-03-27T00:06:00.864Z,14.60
2019-03-27T00:08:30.559Z,11.83
2019-03-27T00:11:00.262Z,15.50
2019-03-27T00:13:30.144Z,17.43
2019-03-27T00:15:59.758Z,18.97
2019-03-27T00:18:30.671Z,18.80
2019-03-27T00:21:00.271Z,18.73
2019-03-27T00:23:30.055Z,20.07
2019-03-27T00:25:59.663Z,14.77
2019-03-27T00:28:29.371Z,16.70
2019-03-27T00:30:59.021Z,20.23
2019-03-27T00:33:28.598Z,14.80
2019-03-27T00:35:58.374Z,20.00
2019-03-27T00:38:27.923Z,12.07
2019-03-27T00:40:57.617Z,13.13
2019-03-27T00:43:27.347Z,15.37
2019-03-27T00:45:57.122Z,17.30
2019-03-27T00:48:26.634Z,26.47
2019-03-27T00:50:56.472Z,14.23
2019-03-27T00:53:26.243Z,16.50
2019-03-27T00:55:55.911Z,17.57
2019-03-27T00:58:25.606Z,14.83
2019-03-27T01:01:07.259Z,18.40
2019-03-27T01:03:36.933Z,12.93
2019-03-27T01:06:07.191Z,18.47
2019-03-27T01:08:36.894Z,35.50
2019-03-27T01:11:06.704Z,14.03
2019-03-27T01:13:36.378Z,24.53
2019-03-27T01:16:06.072Z,15.40
2019-03-27T01:18:35.912Z,15.20
2019-03-27T01:21:05.509Z,14.70
2019-03-27T01:23:35.126Z,14.77
2019-03-27T01:26:04.799Z,17.50
2019-03-27T01:28:34.399Z,13.87
2019-03-27T01:31:04.153Z,14.10
2019-03-27T01:33:33.705Z,15.37
2019-03-27T01:36:03.412Z,14.73
2019-03-27T01:38:33.034Z,15.43
2019-03-27T01:41:02.743Z,20.33
2019-03-27T01:43:32.375Z,24.03
2019-03-27T01:46:02.003Z,15.53
2019-03-27T01:48:31.880Z,25.13
2019-03-27T01:51:01.554Z,16.50
2019-03-27T01:53:42.385Z,27.50
2019-03-27T01:56:11.956Z,20.10
2019-03-27T01:58:41.635Z,18.40
2019-03-27T02:01:11.413Z,23.77
2019-03-27T02:03:41.008Z,21.93
2019-03-27T02:06:10.903Z,18.93
2019-03-27T02:08:40.509Z,23.70
2019-03-27T02:11:10.153Z,15.63
2019-03-27T02:13:39.871Z,17.63
2019-03-27T02:16:09.502Z,20.20
2019-03-27T02:18:39.368Z,22.93
2019-03-27T02:21:08.947Z,17.07
2019-03-27T02:23:38.474Z,23.67
2019-03-27T02:26:07.984Z,16.57
2019-03-27T02:28:37.595Z,26.77
2019-03-27T02:31:07.183Z,16.83
2019-03-27T02:33:36.832Z,36.30
2019-03-27T02:36:06.390Z,19.97
2019-03-27T02:38:36.053Z,26.53
2019-03-27T02:41:05.673Z,21.50
2019-03-27T02:43:35.399Z,19.23
2019-03-27T02:46:05.071Z,27.40
2019-03-27T02:48:34.694Z,39.07
2019-03-27T02:51:04.436Z,24.40
2019-03-27T02:53:34.034Z,24.70
2019-03-27T02:56:03.839Z,18.10
2019-03-27T02:58:33.419Z,26.40
2019-03-27T03:01:03.047Z,24.37
2019-03-27T03:03:32.676Z,24.13
2019-03-27T03:06:02.235Z,23.43
2019-03-27T03:08:31.776Z,43.03
2019-03-27T03:11:01.300Z,26.40
2019-03-27T03:13:30.981Z,29.40
2019-03-27T03:16:00.684Z,22.53
2019-03-27T03:18:30.317Z,24.80
2019-03-27T03:20:59.984Z,33.87
2019-03-27T03:23:29.612Z,24.37
2019-03-27T03:25:59.419Z,26.00
2019-03-27T03:28:29.069Z,22.97
2019-03-27T03:30:58.776Z,18.10
2019-03-27T03:33:28.301Z,21.27
2019-03-27T03:35:57.954Z,27.20
2019-03-27T03:38:27.668Z,17.47
2019-03-27T03:40:57.285Z,24.07
2019-03-27T03:43:26.883Z,25.80
2019-03-27T03:45:56.696Z,31.93
2019-03-27T03:48:26.360Z,28.97
2019-03-27T03:50:59.141Z,26.10
2019-03-27T03:53:30.091Z,28.83
2019-03-27T03:56:00.619Z,24.53
2019-03-27T03:58:32.424Z,27.53
2019-03-27T04:01:02.978Z,22.67
2019-03-27T04:03:35.336Z,24.53
2019-03-27T04:06:05.003Z,30.43
2019-03-27T04:08:34.526Z,20.00
2019-03-27T04:11:04.094Z,22.63
2019-03-27T04:13:33.924Z,30.07
2019-03-27T04:16:03.629Z,19.60
2019-03-27T04:18:33.467Z,21.20
2019-03-27T04:21:03.468Z,32.70
2019-03-27T04:23:33.188Z,28.83
2019-03-27T04:26:09.718Z,20.00
2019-03-27T04:28:33.985Z,27.13
2019-03-27T04:31:06.603Z,24.40
2019-03-27T04:33:36.338Z,34.77
2019-03-27T04:36:06.058Z,31.23
2019-03-27T04:38:35.675Z,34.70
2019-03-27T04:41:05.540Z,22.43
2019-03-27T04:43:35.171Z,24.03
2019-03-27T04:46:04.941Z,40.70
2019-03-27T04:48:34.764Z,33.27
2019-03-27T04:51:04.623Z,31.80
2019-03-27T04:53:34.295Z,26.40
2019-03-27T04:56:04.003Z,34.70
2019-03-27T04:58:33.688Z,34.30
2019-03-27T05:01:03.565Z,32.53
2019-03-27T05:03:33.362Z,24.97
2019-03-27T05:06:03.056Z,36.13
2019-03-27T05:08:32.723Z,27.43
2019-03-27T05:11:02.423Z,31.03
2019-03-27T05:13:32.205Z,27.23
2019-03-27T05:16:01.835Z,30.47
2019-03-27T05:18:31.496Z,29.70
2019-03-27T05:21:01.211Z,34.63
2019-03-27T05:23:30.812Z,28.57
2019-03-27T05:26:00.487Z,39.57
2019-03-27T05:28:30.211Z,38.07
2019-03-27T05:30:59.812Z,32.30
2019-03-27T05:33:32.540Z,26.00
2019-03-27T05:36:00.843Z,32.00
2019-03-27T05:38:30.452Z,33.13
2019-03-27T05:41:00.117Z,28.80
2019-03-27T05:43:29.881Z,32.70
2019-03-27T05:45:59.592Z,28.90
2019-03-27T05:48:29.234Z,35.90
2019-03-27T05:50:59.068Z,36.37
2019-03-27T05:53:28.961Z,40.97
2019-03-27T05:55:58.733Z,29.50
2019-03-27T05:58:28.319Z,27.37
2019-03-27T06:00:57.951Z,28.03
2019-03-27T06:03:27.669Z,28.40
2019-03-27T06:05:57.419Z,37.27
2019-03-27T06:08:27.237Z,34.40
2019-03-27T06:10:57.054Z,32.40
2019-03-27T06:13:26.790Z,30.80
2019-03-27T06:15:56.417Z,35.00
2019-03-27T06:18:26.000Z,33.27
2019-03-27T06:20:55.815Z,46.57
2019-03-27T06:23:25.446Z,34.67
2019-03-27T06:25:55.046Z,52.93
2019-03-27T06:28:24.969Z,40.23
2019-03-27T06:30:54.651Z,42.67
2019-03-27T06:33:24.236Z,44.30
2019-03-27T06:35:53.743Z,43.23
2019-03-27T06:38:23.371Z,34.57
2019-03-27T06:40:52.874Z,32.90
2019-03-27T06:43:22.626Z,29.10
2019-03-27T06:45:52.335Z,32.30
2019-03-27T06:48:26.373Z,32.67
2019-03-27T06:50:53.494Z,35.43
2019-03-27T06:53:23.304Z,35.10
2019-03-27T06:55:52.948Z,41.10
2019-03-27T06:58:22.639Z,30.43
2019-03-27T07:00:52.259Z,45.07
2019-03-27T07:03:21.873Z,36.70
2019-03-27T07:05:51.464Z,39.93
2019-03-27T07:08:21.081Z,26.07
2019-03-27T07:10:50.765Z,30.13
2019-03-27T07:48:22.726Z,21.20
2019-03-27T07:50:54.114Z,36.67
2019-03-27T07:53:23.850Z,17.97
2019-03-27T07:55:53.968Z,14.70
2019-03-27T07:58:23.840Z,21.57
2019-03-27T08:00:53.791Z,21.83
2019-03-27T08:03:23.307Z,19.03
2019-03-27T08:05:53.040Z,21.20
2019-03-27T08:08:22.752Z,26.60
2019-03-27T08:11:11.631Z,19.77
2019-03-27T08:13:41.198Z,19.70
2019-03-27T08:16:10.867Z,23.73
2019-03-27T08:18:40.579Z,25.10
2019-03-27T08:21:10.272Z,16.13
2019-03-27T08:23:42.799Z,24.70
2019-03-27T08:26:12.456Z,23.07
2019-03-27T08:28:41.995Z,27.37
2019-03-27T08:31:11.629Z,24.07
2019-03-27T08:33:41.492Z,28.20
2019-03-27T08:36:11.109Z,27.80
2019-03-27T08:38:40.724Z,20.30
2019-03-27T08:41:10.419Z,22.67
2019-03-27T08:43:40.238Z,28.43
2019-03-27T08:46:10.018Z,26.20
2019-03-27T08:48:39.864Z,27.47
2019-03-27T08:51:10.024Z,27.80
2019-03-27T08:53:39.719Z,26.63
2019-03-27T08:56:09.400Z,27.87
2019-03-27T09:40:52.918Z,24.20
2019-03-27T09:43:22.637Z,19.83
2019-03-27T09:45:52.328Z,16.53
2019-03-27T11:50:18.844Z,15.13
2019-03-27T11:52:48.491Z,8.57
2019-03-27T11:55:18.126Z,16.53
2019-03-27T11:57:47.852Z,11.10
2019-03-27T12:00:17.619Z,11.97
2019-03-27T12:02:47.327Z,11.63
2019-03-27T12:05:17.979Z,14.30
2019-03-27T12:07:47.639Z,13.17
2019-03-27T12:10:17.585Z,15.23
2019-03-27T12:12:48.313Z,10.33
2019-03-27T12:15:21.267Z,10.70
2019-03-27T12:17:51.886Z,15.20
2019-03-27T12:20:21.551Z,8.97
2019-03-27T12:22:57.923Z,14.23
2019-03-27T12:25:24.200Z,15.50
2019-03-27T12:27:53.863Z,7.80
2019-03-27T12:30:23.542Z,10.10
2019-03-27T12:32:53.207Z,9.90
2019-03-27T12:35:22.773Z,7.97
2019-03-27T12:37:52.405Z,16.03
2019-03-27T12:40:22.268Z,9.90
2019-03-27T12:42:52.064Z,10.40
2019-03-27T12:45:21.819Z,9.47
2019-03-27T12:47:53.079Z,7.23
2019-03-27T12:50:22.747Z,10.00
2019-03-27T12:52:52.404Z,10.67
2019-03-27T12:55:22.250Z,10.23
2019-03-27T12:57:52.091Z,8.43
2019-03-27T13:00:22.507Z,10.40
2019-03-27T13:02:52.423Z,10.27
2019-03-27T13:05:22.323Z,9.73
2019-03-27T13:07:51.998Z,11.40
2019-03-27T13:10:21.779Z,12.50
2019-03-27T13:12:51.576Z,13.27
2019-03-27T13:15:21.416Z,11.63
2019-03-27T13:17:51.083Z,8.90
2019-03-27T13:20:21.099Z,9.07
2019-03-27T13:22:50.777Z,13.00
2019-03-27T13:25:20.660Z,9.67
2019-03-27T13:27:50.363Z,7.37
2019-03-27T13:30:20.539Z,11.40
2019-03-27T13:32:50.566Z,11.20
2019-03-27T13:35:20.377Z,9.57
2019-03-27T13:37:50.579Z,13.90
2019-03-27T13:40:39.996Z,11.70
2019-03-27T13:43:09.979Z,8.90
2019-03-27T13:45:39.858Z,8.70
2019-03-27T13:48:09.375Z,11.43
2019-03-27T13:50:39.235Z,9.73
2019-03-27T13:53:08.795Z,8.77
2019-03-27T13:55:38.411Z,10.27
2019-03-27T13:58:08.109Z,7.60
2019-03-27T14:00:37.816Z,12.17
2019-03-27T14:03:07.538Z,10.50
2019-03-27T14:05:37.322Z,10.33
2019-03-27T14:08:07.171Z,10.27
2019-03-27T14:10:37.093Z,9.07
2019-03-27T14:13:06.956Z,9.50
2019-03-27T14:15:37.011Z,13.43
2019-03-27T14:18:12.924Z,11.03
2019-03-27T14:20:42.491Z,10.93
2019-03-27T14:23:12.454Z,12.40
2019-03-27T14:25:42.305Z,10.60
2019-03-27T14:28:12.124Z,13.23
2019-03-27T14:30:56.163Z,12.87
2019-03-27T14:33:25.935Z,14.87
2019-03-27T14:35:55.750Z,16.20
2019-03-27T14:38:25.516Z,12.87
2019-03-27T14:40:55.093Z,13.53
2019-03-27T14:43:27.072Z,17.37
2019-03-27T14:45:56.106Z,17.17
2019-03-27T14:48:26.001Z,13.30
2019-03-27T14:50:55.734Z,13.97
2019-03-27T14:53:25.762Z,13.33
2019-03-27T14:55:55.391Z,11.60
2019-03-27T14:58:25.139Z,13.07
2019-03-27T15:00:55.328Z,10.07
2019-03-27T15:03:25.616Z,13.10
2019-03-27T15:05:55.505Z,11.70
2019-03-27T15:08:25.262Z,15.43
2019-03-27T15:10:55.019Z,12.23
2019-03-27T15:13:24.846Z,34.40
2019-03-27T15:15:54.598Z,18.13
2019-03-27T15:18:24.236Z,32.60
2019-03-27T15:20:54.194Z,26.00
2019-03-27T15:23:24.216Z,16.60
2019-03-27T15:25:54.447Z,16.30
2019-03-27T15:28:24.139Z,13.70
2019-03-27T15:30:54.098Z,12.77
2019-03-27T15:33:23.973Z,13.40
2019-03-27T15:35:58.643Z,20.00
2019-03-27T15:38:31.259Z,13.40
2019-03-27T15:41:00.986Z,9.47
2019-03-27T15:43:30.773Z,7.63
2019-03-27T15:46:00.627Z,10.30
2019-03-27T15:48:30.390Z,9.77
2019-03-27T15:51:00.106Z,16.00
2019-03-27T15:53:49.091Z,12.10
2019-03-27T15:56:18.655Z,14.07
2019-03-27T15:58:48.302Z,13.17
2019-03-27T16:01:17.966Z,12.50
2019-03-27T16:03:47.584Z,14.70
2019-03-27T16:06:17.542Z,11.93
2019-03-27T16:08:47.382Z,8.80
2019-03-27T16:11:17.474Z,9.70
2019-03-27T16:13:47.262Z,11.07
2019-03-27T16:16:17.020Z,7.63
2019-03-27T16:18:46.667Z,10.90
2019-03-27T16:21:16.342Z,12.80
2019-03-27T16:23:45.987Z,17.47
2019-03-27T16:26:15.722Z,14.47
2019-03-27T16:28:45.487Z,14.13
2019-03-27T16:31:15.142Z,12.53
2019-03-27T16:33:44.864Z,12.30
2019-03-27T16:36:16.169Z,11.97
2019-03-27T16:39:06.419Z,10.50
2019-03-27T16:41:36.045Z,10.13
2019-03-27T16:44:05.822Z,11.57
2019-03-27T16:46:35.572Z,7.80
2019-03-27T16:49:05.478Z,12.87
2019-03-27T16:51:35.059Z,16.80
2019-03-27T16:54:04.739Z,12.30
2019-03-27T16:56:34.256Z,12.83
2019-03-27T16:59:04.186Z,11.20
2019-03-27T17:01:33.795Z,10.10
2019-03-27T17:04:03.474Z,11.50
2019-03-27T17:06:33.132Z,11.70
2019-03-27T17:09:02.896Z,10.20
2019-03-27T17:11:32.583Z,8.83
2019-03-27T17:14:02.166Z,12.20
2019-03-27T17:16:31.755Z,11.50
2019-03-27T17:19:01.459Z,11.93
2019-03-27T17:21:31.141Z,6.97
2019-03-27T17:24:01.038Z,20.27
2019-03-27T17:26:30.643Z,22.13
2019-03-27T17:29:00.452Z,20.60
2019-03-27T17:31:30.125Z,18.37
2019-03-27T17:33:59.881Z,10.77
2019-03-27T17:36:29.640Z,11.53
2019-03-27T17:38:59.379Z,11.10
2019-03-27T17:41:29.060Z,8.00
2019-03-27T17:43:58.686Z,12.30
2019-03-27T17:46:31.147Z,11.13
2019-03-27T17:49:01.097Z,12.20
2019-03-27T17:51:30.874Z,6.77
2019-03-27T17:54:00.713Z,6.30
2019-03-27T17:56:30.710Z,7.00
2019-03-27T17:59:00.369Z,8.50
2019-03-27T18:01:30.245Z,10.37
2019-03-27T18:03:59.935Z,14.93
2019-03-27T18:06:29.761Z,12.90
2019-03-27T18:08:59.450Z,12.50
2019-03-27T18:11:29.288Z,13.00
2019-03-27T18:13:58.889Z,13.50
2019-03-27T18:16:28.566Z,14.80
2019-03-27T18:18:58.095Z,13.07
2019-03-27T18:21:27.768Z,13.63
2019-03-27T18:23:57.357Z,15.53
2019-03-27T18:26:27.302Z,12.80
2019-03-27T18:28:57.206Z,10.67
2019-03-27T18:31:26.839Z,12.60
2019-03-27T18:33:56.554Z,12.90
2019-03-27T18:36:26.142Z,18.13
2019-03-27T18:38:55.874Z,18.37
2019-03-27T18:41:25.666Z,14.43
2019-03-27T18:43:55.455Z,15.30
2019-03-27T18:46:25.183Z,13.63
2019-03-27T18:48:55.266Z,12.43
2019-03-27T18:51:25.301Z,13.00
2019-03-27T18:53:59.941Z,10.40
2019-03-27T18:56:26.212Z,9.17
2019-03-27T18:58:56.101Z,10.67
2019-03-27T19:01:26.128Z,15.33
2019-03-27T19:03:55.983Z,13.07
2019-03-27T19:06:25.608Z,8.03
2019-03-27T19:08:55.248Z,11.13
2019-03-27T19:11:25.119Z,13.60
2019-03-27T19:13:56.419Z,13.10
2019-03-27T19:16:26.124Z,10.90
2019-03-27T19:18:55.897Z,15.17
2019-03-27T19:21:25.786Z,15.20
2019-03-27T19:23:55.573Z,15.47
2019-03-27T19:26:25.314Z,12.33
2019-03-27T19:28:55.007Z,13.90
2019-03-27T19:31:24.680Z,12.47
2019-03-27T19:33:54.402Z,9.13
2019-03-27T19:36:23.943Z,12.00
2019-03-27T19:38:53.887Z,12.30
2019-03-27T19:41:23.611Z,10.17
2019-03-27T19:43:53.352Z,13.10
2019-03-27T19:46:23.150Z,12.43
2019-03-27T19:48:53.083Z,20.50
2019-03-27T19:51:22.831Z,23.23
2019-03-27T19:53:52.617Z,13.40
2019-03-27T19:56:22.397Z,15.10
2019-03-27T19:58:52.051Z,13.90
2019-03-27T20:01:21.793Z,15.37
2019-03-27T20:03:51.570Z,14.00
2019-03-27T20:06:21.543Z,18.50
2019-03-27T20:08:51.334Z,19.80
2019-03-27T20:11:21.081Z,16.80
2019-03-27T20:13:50.918Z,17.90
2019-03-27T20:16:20.657Z,18.50
2019-03-27T20:18:50.327Z,20.23
2019-03-27T20:21:20.006Z,26.70
2019-03-27T20:23:50.023Z,17.67
2019-03-27T20:26:20.223Z,26.23
2019-03-27T20:28:49.872Z,21.10
2019-03-27T20:31:19.694Z,19.20
2019-03-27T20:33:49.332Z,19.80
2019-03-27T20:36:19.254Z,31.00
2019-03-27T20:38:49.327Z,23.30
2019-03-27T20:41:19.522Z,18.70
2019-03-27T20:43:49.487Z,24.50
2019-03-27T20:46:24.837Z,19.00
2019-03-27T20:48:50.527Z,18.67
2019-03-27T20:51:21.493Z,25.03
2019-03-27T20:53:51.297Z,16.43
2019-03-27T20:56:20.969Z,18.40
2019-03-27T20:58:50.611Z,17.50
2019-03-27T21:01:20.204Z,21.50
2019-03-27T21:03:49.831Z,23.57
2019-03-27T21:06:19.353Z,19.73
2019-03-27T21:08:49.252Z,22.73
2019-03-27T21:11:19.293Z,16.77
2019-03-27T21:13:48.904Z,20.43
2019-03-27T21:16:18.670Z,21.83
2019-03-27T21:18:48.387Z,16.17
2019-03-27T21:21:17.907Z,23.57
2019-03-27T21:23:47.779Z,24.53
2019-03-27T21:26:17.568Z,24.93
2019-03-27T21:28:47.475Z,22.43
2019-03-27T21:31:36.628Z,21.23
2019-03-27T21:34:06.351Z,23.47
2019-03-27T21:36:36.082Z,20.83
2019-03-27T21:39:08.054Z,20.50
2019-03-27T21:41:37.632Z,22.13
2019-03-27T21:44:07.577Z,20.53
2019-03-27T21:46:37.371Z,23.10
2019-03-27T21:49:07.483Z,21.00
2019-03-27T21:51:37.195Z,17.70
2019-03-27T21:54:06.730Z,21.70
2019-03-27T22:06:31.384Z,30.70
